createdAt,value
2018-03-22T00:01:04.776Z,16.47
2018-03-22T00:03:33.912Z,29.53
2018-03-22T00:06:02.272Z,16.57
2018-03-22T00:08:31.533Z,22.80
2018-03-22T00:11:00.691Z,18.03
2018-03-22T00:13:29.057Z,24.33
2018-03-22T00:15:57.446Z,24.57
2018-03-22T00:18:25.801Z,25.63
2018-03-22T00:20:54.155Z,14.40
2018-03-22T00:23:23.297Z,26.60
2018-03-22T00:25:51.674Z,23.20
2018-03-22T00:28:20.050Z,29.20
2018-03-22T00:30:48.442Z,17.53
2018-03-22T00:33:16.817Z,22.80
2018-03-22T00:35:45.178Z,43.20
2018-03-22T00:38:13.550Z,19.07
2018-03-22T00:40:41.909Z,18.37
2018-03-22T00:43:11.242Z,22.50
2018-03-22T00:45:39.598Z,26.50
2018-03-22T00:48:07.961Z,19.63
2018-03-22T00:50:36.330Z,26.83
2018-03-22T00:53:05.204Z,25.00
2018-03-22T00:55:34.325Z,18.80
2018-03-22T00:58:02.697Z,21.70
2018-03-22T01:00:31.825Z,25.27
2018-03-22T01:03:00.205Z,14.77
2018-03-22T01:05:28.564Z,26.57
2018-03-22T01:07:56.924Z,22.03
2018-03-22T01:10:26.073Z,26.93
2018-03-22T01:12:54.448Z,19.57
2018-03-22T01:15:22.813Z,15.23
2018-03-22T01:17:51.162Z,14.57
2018-03-22T01:20:19.536Z,26.90
2018-03-22T01:22:48.636Z,15.30
2018-03-22T01:25:17.002Z,27.13
2018-03-22T01:27:46.106Z,17.37
2018-03-22T01:30:25.892Z,14.70
2018-03-22T01:32:54.259Z,21.47
2018-03-22T01:35:22.607Z,24.80
2018-03-22T01:37:50.952Z,26.73
2018-03-22T01:40:19.300Z,29.47
2018-03-22T01:42:47.670Z,22.07
2018-03-22T01:45:16.005Z,12.10
2018-03-22T01:47:45.130Z,20.57
2018-03-22T01:50:13.579Z,17.43
2018-03-22T01:52:53.976Z,19.63
2018-03-22T01:55:22.531Z,13.37
2018-03-22T01:57:51.652Z,26.77
2018-03-22T02:00:20.023Z,20.77
2018-03-22T02:02:48.416Z,28.60
2018-03-22T02:05:16.782Z,25.43
2018-03-22T02:07:45.124Z,25.90
2018-03-22T02:10:14.255Z,17.33
2018-03-22T02:12:42.596Z,15.70
2018-03-22T02:15:11.736Z,19.70
2018-03-22T02:17:40.073Z,23.57
2018-03-22T02:20:09.202Z,17.70
2018-03-22T02:22:37.554Z,21.80
2018-03-22T02:25:06.861Z,17.90
2018-03-22T02:27:35.056Z,20.10
2018-03-22T02:30:03.406Z,16.67
2018-03-22T02:32:31.968Z,23.30
2018-03-22T02:35:01.116Z,29.20
2018-03-22T02:37:29.672Z,21.87
2018-03-22T02:39:58.041Z,17.87
2018-03-22T02:42:26.574Z,20.47
2018-03-22T02:44:54.936Z,45.77
2018-03-22T02:47:23.284Z,16.63
2018-03-22T02:49:51.650Z,23.63
2018-03-22T02:52:20.808Z,27.50
2018-03-22T02:54:49.177Z,23.77
2018-03-22T02:57:17.547Z,16.47
2018-03-22T02:59:45.932Z,17.13
2018-03-22T03:02:14.277Z,16.00
2018-03-22T03:04:42.629Z,17.37
2018-03-22T03:07:10.980Z,13.17
2018-03-22T03:09:39.340Z,22.67
2018-03-22T03:12:07.707Z,26.33
2018-03-22T03:14:36.053Z,24.83
2018-03-22T03:17:05.172Z,15.53
2018-03-22T03:19:33.512Z,22.63
2018-03-22T03:22:02.640Z,18.80
2018-03-22T03:24:31.020Z,12.70
2018-03-22T03:26:59.566Z,27.13
2018-03-22T03:29:27.922Z,23.83
2018-03-22T03:31:56.268Z,26.90
2018-03-22T03:34:24.684Z,25.63
2018-03-22T03:36:53.031Z,15.47
2018-03-22T03:39:21.412Z,17.57
2018-03-22T03:41:49.756Z,21.20
2018-03-22T03:44:18.116Z,20.80
2018-03-22T03:46:47.251Z,23.70
2018-03-22T03:49:15.588Z,7.80
2018-03-22T03:51:44.712Z,20.70
2018-03-22T03:54:13.065Z,31.73
2018-03-22T03:56:42.206Z,19.93
2018-03-22T03:59:10.576Z,23.70
2018-03-22T04:01:38.947Z,15.37
2018-03-22T04:04:07.105Z,12.63
2018-03-22T04:06:35.445Z,10.77
2018-03-22T04:09:03.176Z,9.70
2018-03-22T04:11:31.647Z,14.90
2018-03-22T04:14:00.058Z,10.93
2018-03-22T04:16:28.483Z,18.83
2018-03-22T04:18:56.861Z,22.50
2018-03-22T04:21:25.212Z,8.50
2018-03-22T04:23:53.548Z,24.70
2018-03-22T04:26:21.899Z,12.07
2018-03-22T04:28:50.261Z,14.90
2018-03-22T04:31:19.493Z,18.67
2018-03-22T04:33:47.832Z,24.13
2018-03-22T04:36:16.962Z,18.67
2018-03-22T04:38:45.313Z,13.60
2018-03-22T04:41:14.432Z,8.23
2018-03-22T04:43:42.789Z,13.87
2018-03-22T04:46:11.906Z,15.20
2018-03-22T04:48:40.300Z,16.80
2018-03-22T04:51:08.652Z,16.43
2018-03-22T04:53:37.012Z,21.90
2018-03-22T04:56:06.136Z,21.07
2018-03-22T04:58:34.487Z,11.37
2018-03-22T05:01:03.615Z,17.27
2018-03-22T05:03:31.968Z,10.87
2018-03-22T05:06:00.376Z,27.13
2018-03-22T05:08:28.743Z,14.17
2018-03-22T05:10:57.103Z,15.57
2018-03-22T05:13:25.443Z,22.87
2018-03-22T05:15:53.792Z,16.13
2018-03-22T05:18:22.210Z,25.97
2018-03-22T05:20:50.743Z,10.40
2018-03-22T05:23:19.096Z,12.70
2018-03-22T05:25:47.488Z,18.07
2018-03-22T05:28:15.530Z,20.30
2018-03-22T05:30:44.652Z,17.90
2018-03-22T05:33:13.000Z,24.10
2018-03-22T05:35:42.195Z,16.07
2018-03-22T05:38:11.312Z,20.97
2018-03-22T05:40:39.679Z,10.23
2018-03-22T05:43:08.655Z,14.37
2018-03-22T05:45:37.786Z,15.77
2018-03-22T05:48:06.342Z,15.07
2018-03-22T05:50:35.447Z,21.00
2018-03-22T05:53:03.816Z,10.50
2018-03-22T05:55:34.998Z,25.73
2018-03-22T05:58:03.431Z,26.80
2018-03-22T06:00:32.551Z,23.63
2018-03-22T06:03:00.902Z,20.10
2018-03-22T06:05:30.055Z,21.13
2018-03-22T06:07:58.523Z,16.77
2018-03-22T06:10:26.864Z,17.07
2018-03-22T06:12:56.004Z,19.57
2018-03-22T06:15:24.363Z,11.37
2018-03-22T06:17:52.723Z,21.80
2018-03-22T06:20:21.071Z,14.10
2018-03-22T06:22:49.445Z,23.27
2018-03-22T06:25:17.794Z,14.60
2018-03-22T06:27:46.148Z,12.00
2018-03-22T06:30:14.533Z,13.93
2018-03-22T06:32:42.889Z,29.00
2018-03-22T06:35:12.008Z,16.80
2018-03-22T06:37:40.360Z,15.80
2018-03-22T06:40:08.784Z,24.13
2018-03-22T06:42:38.048Z,15.97
2018-03-22T06:45:06.436Z,15.33
2018-03-22T06:47:34.784Z,12.03
2018-03-22T06:50:03.913Z,16.97
2018-03-22T06:52:32.267Z,13.87
2018-03-22T06:55:01.438Z,18.47
2018-03-22T06:57:29.819Z,14.50
2018-03-22T06:59:58.182Z,19.80
2018-03-22T07:02:26.748Z,16.07
2018-03-22T07:04:55.136Z,18.20
2018-03-22T07:07:23.527Z,16.13
2018-03-22T07:09:51.882Z,19.33
2018-03-22T07:12:20.296Z,13.17
2018-03-22T07:14:48.655Z,5.53
2018-03-22T07:17:17.011Z,14.13
2018-03-22T07:19:45.391Z,10.80
2018-03-22T07:22:14.721Z,16.73
2018-03-22T07:24:43.073Z,15.57
2018-03-22T07:27:11.470Z,18.50
2018-03-22T07:29:39.823Z,14.87
2018-03-22T07:32:08.158Z,14.23
2018-03-22T07:34:37.276Z,11.73
2018-03-22T07:37:05.621Z,5.27
2018-03-22T07:39:34.616Z,11.07
2018-03-22T07:42:03.734Z,7.67
2018-03-22T07:44:37.681Z,11.57
2018-03-22T07:47:06.020Z,5.47
2018-03-22T07:49:34.400Z,11.53
2018-03-22T07:52:02.801Z,7.17
2018-03-22T07:54:31.179Z,13.67
2018-03-22T07:56:59.530Z,7.87
2018-03-22T07:59:27.871Z,8.97
2018-03-22T08:01:56.219Z,11.03
2018-03-22T08:04:24.603Z,17.43
2018-03-22T08:06:52.958Z,8.97
2018-03-22T08:09:21.339Z,8.63
2018-03-22T08:11:49.672Z,7.10
2018-03-22T08:14:18.786Z,10.90
2018-03-22T08:16:47.147Z,8.53
2018-03-22T08:19:16.885Z,10.00
2018-03-22T08:21:45.244Z,8.80
2018-03-22T08:24:14.369Z,8.90
2018-03-22T08:26:42.718Z,8.83
2018-03-22T08:29:11.831Z,9.97
2018-03-22T08:31:40.164Z,12.50
2018-03-22T08:34:08.528Z,7.20
2018-03-22T08:36:36.911Z,5.30
2018-03-22T08:39:04.467Z,6.43
2018-03-22T08:41:32.858Z,4.20
2018-03-22T08:44:01.632Z,5.10
2018-03-22T08:46:30.005Z,10.77
2018-03-22T08:48:58.376Z,6.53
2018-03-22T08:51:26.715Z,5.80
2018-03-22T08:53:55.245Z,6.83
2018-03-22T08:56:23.408Z,12.57
2018-03-22T08:58:52.532Z,2.90
2018-03-22T09:01:20.715Z,4.07
2018-03-22T09:03:49.515Z,6.90
2018-03-22T09:06:18.773Z,3.67
2018-03-22T09:08:47.132Z,6.90
2018-03-22T09:11:15.488Z,7.10
2018-03-22T09:13:44.884Z,3.47
2018-03-22T09:16:13.250Z,3.77
2018-03-22T09:18:42.352Z,2.60
2018-03-22T09:21:11.046Z,5.20
2018-03-22T09:23:39.396Z,7.47
2018-03-22T09:26:08.716Z,5.10
2018-03-22T09:28:37.207Z,6.17
2018-03-22T09:31:05.563Z,10.40
2018-03-22T09:33:34.683Z,7.10
2018-03-22T09:36:03.099Z,10.77
2018-03-22T09:38:31.500Z,5.67
2018-03-22T09:41:00.094Z,5.20
2018-03-22T09:43:29.241Z,6.27
2018-03-22T09:45:57.304Z,8.20
2018-03-22T09:48:26.439Z,8.30
2018-03-22T09:50:54.813Z,9.33
2018-03-22T09:53:23.184Z,6.30
2018-03-22T09:55:51.560Z,6.27
2018-03-22T09:58:19.689Z,7.20
2018-03-22T10:00:48.040Z,4.27
2018-03-22T10:03:17.177Z,8.70
2018-03-22T10:05:45.527Z,6.23
2018-03-22T10:08:14.009Z,9.37
2018-03-22T10:10:43.128Z,4.23
2018-03-22T10:13:11.483Z,5.20
2018-03-22T10:15:39.833Z,4.07
2018-03-22T10:18:08.228Z,6.30
2018-03-22T10:20:37.341Z,8.67
2018-03-22T10:23:05.532Z,6.57
2018-03-22T10:25:33.900Z,8.70
2018-03-22T10:28:02.253Z,5.27
2018-03-22T10:30:31.411Z,7.20
2018-03-22T10:33:00.515Z,6.60
2018-03-22T10:35:28.929Z,6.30
2018-03-22T10:37:58.396Z,6.80
2018-03-22T10:40:27.040Z,7.70
2018-03-22T10:42:55.639Z,9.40
2018-03-22T10:45:24.062Z,6.23
2018-03-22T10:47:52.413Z,8.60
2018-03-22T10:50:20.821Z,9.07
2018-03-22T10:52:49.427Z,6.73
2018-03-22T10:55:18.020Z,3.67
2018-03-22T10:57:46.212Z,5.13
2018-03-22T11:00:20.019Z,7.17
2018-03-22T11:02:54.049Z,6.10
2018-03-22T11:05:22.409Z,6.20
2018-03-22T11:07:50.566Z,6.67
2018-03-22T11:10:18.963Z,3.07
2018-03-22T11:12:47.366Z,7.30
2018-03-22T11:15:15.757Z,5.70
2018-03-22T11:17:44.165Z,5.70
2018-03-22T11:20:12.590Z,8.23
2018-03-22T11:22:41.122Z,7.17
2018-03-22T11:25:10.268Z,7.07
2018-03-22T11:27:38.627Z,6.03
2018-03-22T11:30:06.637Z,6.23
2018-03-22T11:32:34.977Z,5.40
2018-03-22T11:35:03.341Z,5.53
2018-03-22T11:37:31.744Z,6.70
2018-03-22T11:40:00.152Z,6.50
2018-03-22T11:42:28.523Z,7.50
2018-03-22T11:44:56.972Z,5.23
2018-03-22T11:47:25.358Z,4.67
2018-03-22T11:49:53.804Z,6.00
2018-03-22T11:52:22.166Z,4.60
2018-03-22T11:54:50.599Z,6.97
2018-03-22T11:57:19.028Z,4.90
2018-03-22T11:59:48.132Z,6.80
2018-03-22T12:02:16.489Z,7.20
2018-03-22T12:04:45.210Z,4.67
2018-03-22T12:07:14.548Z,3.70
2018-03-22T12:09:42.936Z,4.40
2018-03-22T12:12:11.317Z,7.80
2018-03-22T12:14:39.747Z,5.17
2018-03-22T12:17:08.151Z,4.70
2018-03-22T12:19:36.676Z,5.57
2018-03-22T12:22:04.719Z,5.77
2018-03-22T12:24:33.146Z,5.83
2018-03-22T12:27:01.785Z,8.33
2018-03-22T12:29:30.481Z,4.70
2018-03-22T12:31:59.633Z,6.87
2018-03-22T12:34:27.992Z,5.93
2018-03-22T12:36:56.391Z,5.80
2018-03-22T12:39:24.823Z,5.33
2018-03-22T12:41:54.041Z,5.90
2018-03-22T12:44:22.492Z,5.20
2018-03-22T12:46:50.875Z,6.33
2018-03-22T12:49:19.309Z,4.47
2018-03-22T12:51:47.655Z,4.70
2018-03-22T12:54:16.056Z,4.43
2018-03-22T12:56:44.412Z,4.00
2018-03-22T12:59:12.877Z,5.40
2018-03-22T13:01:41.325Z,4.80
2018-03-22T13:04:09.816Z,4.83
2018-03-22T13:06:38.293Z,5.43
2018-03-22T13:09:07.578Z,5.37
2018-03-22T13:11:36.284Z,4.13
2018-03-22T13:14:04.723Z,4.87
2018-03-22T13:16:34.043Z,4.90
2018-03-22T13:19:02.622Z,4.60
2018-03-22T13:21:31.560Z,3.70
2018-03-22T13:24:00.138Z,5.40
2018-03-22T13:26:28.522Z,5.03
2018-03-22T13:28:56.888Z,4.20
2018-03-22T13:31:27.113Z,6.07
2018-03-22T13:33:55.639Z,4.10
2018-03-22T13:36:23.996Z,5.63
2018-03-22T13:38:52.351Z,6.67
2018-03-22T13:41:21.592Z,5.67
2018-03-22T13:43:49.933Z,5.30
2018-03-22T13:46:19.104Z,6.27
2018-03-22T13:48:47.464Z,5.40
2018-03-22T13:51:15.848Z,7.80
2018-03-22T13:53:44.206Z,5.50
2018-03-22T13:56:12.560Z,7.63
2018-03-22T13:58:40.912Z,6.60
2018-03-22T14:01:10.024Z,7.53
2018-03-22T14:03:38.367Z,7.97
2018-03-22T14:06:06.747Z,7.43
2018-03-22T14:08:34.940Z,7.17
2018-03-22T14:11:04.065Z,6.57
2018-03-22T14:13:32.405Z,7.93
2018-03-22T14:16:01.560Z,8.17
2018-03-22T14:18:29.905Z,8.37
2018-03-22T14:20:58.267Z,8.27
2018-03-22T14:23:27.584Z,8.53
2018-03-22T14:25:56.908Z,10.60
2018-03-22T14:28:25.309Z,9.07
2018-03-22T14:30:53.708Z,8.30
2018-03-22T14:33:22.063Z,11.17
2018-03-22T14:35:50.453Z,10.33
2018-03-22T14:38:18.828Z,8.17
2018-03-22T14:40:47.279Z,11.20
2018-03-22T14:43:15.647Z,8.93
2018-03-22T14:45:44.005Z,10.13
2018-03-22T14:48:12.344Z,9.33
2018-03-22T14:50:40.719Z,10.97
2018-03-22T14:53:09.059Z,11.07
2018-03-22T14:55:37.513Z,11.00
2018-03-22T14:58:07.196Z,11.23
2018-03-22T15:00:36.420Z,11.23
2018-03-22T15:03:04.907Z,11.43
2018-03-22T15:05:33.268Z,12.57
2018-03-22T15:08:02.474Z,12.10
2018-03-22T15:10:31.656Z,11.20
2018-03-22T15:13:00.196Z,14.53
2018-03-22T15:15:28.554Z,18.03
2018-03-22T15:17:57.292Z,14.13
2018-03-22T15:20:25.658Z,11.73
2018-03-22T15:22:54.007Z,14.63
2018-03-22T15:25:22.403Z,14.20
2018-03-22T15:27:50.760Z,12.50
2018-03-22T15:30:19.116Z,13.07
2018-03-22T15:32:47.466Z,13.10
2018-03-22T15:35:15.903Z,19.63
2018-03-22T15:37:44.279Z,15.67
2018-03-22T15:40:12.624Z,16.97
2018-03-22T15:42:41.009Z,15.37
2018-03-22T15:45:09.421Z,15.53
2018-03-22T15:47:37.840Z,16.97
2018-03-22T15:50:06.348Z,16.63
2018-03-22T15:52:34.732Z,21.57
2018-03-22T15:55:03.116Z,15.97
2018-03-22T15:57:31.466Z,17.30
2018-03-22T16:00:00.750Z,19.13
2018-03-22T16:02:29.702Z,21.80
2018-03-22T16:04:58.119Z,20.00
2018-03-22T16:07:27.303Z,19.00
2018-03-22T16:09:55.678Z,16.20
2018-03-22T16:12:24.109Z,16.50
2018-03-22T16:14:52.440Z,17.00
2018-03-22T16:17:22.300Z,18.53
2018-03-22T16:19:52.745Z,26.57
2018-03-22T16:22:21.109Z,17.10
2018-03-22T16:24:49.553Z,17.77
2018-03-22T16:27:18.803Z,15.90
2018-03-22T16:29:47.177Z,18.97
2018-03-22T16:32:15.589Z,16.90
2018-03-22T16:34:46.774Z,19.20
2018-03-22T16:37:15.535Z,24.27
2018-03-22T16:39:43.953Z,19.60
2018-03-22T16:42:12.344Z,26.93
2018-03-22T16:44:40.772Z,20.40
2018-03-22T16:47:09.171Z,17.70
2018-03-22T16:49:37.572Z,23.30
2018-03-22T16:52:06.873Z,20.83
2018-03-22T16:54:35.447Z,21.40
2018-03-22T16:57:03.483Z,19.77
2018-03-22T16:59:31.887Z,25.47
2018-03-22T17:02:00.264Z,20.40
2018-03-22T17:04:28.619Z,22.03
2018-03-22T17:06:57.731Z,20.33
2018-03-22T17:09:26.873Z,20.93
2018-03-22T17:11:55.230Z,20.80
2018-03-22T17:14:23.584Z,20.23
2018-03-22T17:16:51.943Z,23.57
2018-03-22T17:19:20.326Z,19.40
2018-03-22T17:21:49.475Z,21.97
2018-03-22T17:24:17.827Z,20.90
2018-03-22T17:26:46.191Z,25.87
2018-03-22T17:29:14.363Z,19.03
2018-03-22T17:31:42.727Z,41.07
2018-03-22T17:34:11.857Z,47.00
2018-03-22T17:36:39.716Z,25.27
2018-03-22T17:39:07.738Z,18.57
2018-03-22T17:41:36.088Z,30.93
2018-03-22T17:44:04.456Z,21.17
2018-03-22T17:46:32.832Z,21.40
2018-03-22T17:49:01.214Z,21.57
2018-03-22T17:51:29.561Z,21.97
2018-03-22T17:53:57.934Z,21.10
2018-03-22T17:56:27.044Z,30.00
2018-03-22T17:58:55.401Z,22.87
2018-03-22T18:01:24.535Z,18.23
2018-03-22T18:03:53.353Z,21.43
2018-03-22T18:06:21.777Z,21.07
2018-03-22T18:08:50.130Z,24.43
2018-03-22T18:11:18.333Z,21.57
2018-03-22T18:13:46.720Z,17.80
2018-03-22T18:16:15.110Z,22.50
2018-03-22T18:18:43.498Z,22.30
2018-03-22T18:21:11.866Z,24.80
2018-03-22T18:23:40.284Z,22.70
2018-03-22T18:26:08.311Z,22.40
2018-03-22T18:28:36.753Z,21.17
2018-03-22T18:31:05.900Z,19.77
2018-03-22T18:33:34.259Z,17.67
2018-03-22T18:36:02.658Z,21.70
2018-03-22T18:38:31.094Z,19.07
2018-03-22T18:41:00.242Z,20.03
2018-03-22T18:43:28.625Z,25.10
2018-03-22T18:45:57.029Z,25.10
2018-03-22T18:48:25.775Z,28.70
2018-03-22T18:50:54.148Z,25.00
2018-03-22T18:53:22.557Z,27.30
2018-03-22T18:55:50.908Z,22.50
2018-03-22T18:58:19.303Z,26.80
2018-03-22T19:00:47.649Z,27.50
2018-03-22T19:03:16.032Z,24.77
2018-03-22T19:05:44.423Z,23.10
2018-03-22T19:08:12.804Z,23.70
2018-03-22T19:10:41.188Z,21.17
2018-03-22T19:13:09.590Z,24.90
2018-03-22T19:15:38.027Z,26.60
2018-03-22T19:18:06.421Z,26.23
2018-03-22T19:20:35.109Z,29.30
2018-03-22T19:23:03.594Z,33.63
2018-03-22T19:25:32.057Z,39.17
2018-03-22T19:28:00.585Z,30.93
2018-03-22T19:30:29.854Z,41.47
2018-03-22T19:32:58.460Z,31.93
2018-03-22T19:35:27.004Z,34.80
2018-03-22T19:37:55.511Z,34.73
2018-03-22T19:40:24.018Z,31.73
2018-03-22T19:42:53.414Z,30.67
2018-03-22T19:45:22.144Z,32.33
2018-03-22T19:47:51.226Z,34.90
2018-03-22T19:50:19.929Z,29.33
2018-03-22T19:52:48.476Z,30.80
2018-03-22T19:55:17.462Z,31.90
2018-03-22T19:57:46.138Z,30.87
2018-03-22T20:00:14.919Z,29.10
2018-03-22T20:02:43.553Z,34.70
2018-03-22T20:05:12.197Z,31.47
2018-03-22T20:07:41.042Z,39.50
2018-03-22T20:10:10.491Z,32.77
2018-03-22T20:12:39.269Z,28.40
2018-03-22T20:15:07.948Z,38.73
2018-03-22T20:17:36.679Z,33.50
2018-03-22T20:20:05.384Z,30.20
2018-03-22T20:22:34.083Z,37.40
2018-03-22T20:25:03.655Z,60.80
2018-03-22T20:27:32.408Z,35.70
2018-03-22T20:30:01.227Z,26.70
2018-03-22T20:32:29.987Z,22.70
2018-03-22T20:34:58.722Z,33.90
2018-03-22T20:37:27.512Z,30.13
2018-03-22T20:39:56.281Z,31.40
2018-03-22T20:42:24.928Z,29.83
2018-03-22T20:44:53.763Z,28.50
2018-03-22T20:47:24.235Z,28.67
2018-03-22T20:49:52.931Z,29.63
2018-03-22T20:52:21.655Z,32.87
2018-03-22T20:54:51.045Z,31.77
2018-03-22T20:57:19.685Z,25.33
2018-03-22T20:59:49.019Z,26.10
2018-03-22T21:02:17.481Z,27.67
2018-03-22T21:04:46.114Z,32.40
2018-03-22T21:07:14.697Z,30.63
2018-03-22T21:09:43.257Z,29.43
2018-03-22T21:12:11.811Z,33.53
2018-03-22T21:14:40.259Z,24.87
2018-03-22T21:17:08.797Z,29.00
2018-03-22T21:19:37.276Z,34.00
2018-03-22T21:22:05.768Z,35.70
2018-03-22T21:24:34.136Z,31.27
2018-03-22T21:27:03.484Z,30.50
2018-03-22T21:29:31.897Z,31.30
2018-03-22T21:32:00.071Z,32.30
2018-03-22T21:34:28.441Z,35.20
2018-03-22T21:36:56.635Z,30.63
2018-03-22T21:39:25.032Z,28.17
2018-03-22T21:42:04.784Z,35.27
2018-03-22T21:44:33.227Z,28.77
2018-03-22T21:47:13.513Z,33.23
2018-03-22T21:49:41.880Z,29.60
2018-03-22T21:52:21.408Z,36.30
2018-03-22T21:54:50.560Z,31.13
2018-03-22T21:57:18.901Z,28.97
2018-03-22T21:59:47.270Z,35.13
2018-03-22T22:02:17.200Z,34.73
2018-03-22T22:04:45.576Z,37.07
2018-03-22T22:07:14.616Z,38.63
2018-03-22T22:09:42.969Z,34.57
2018-03-22T22:12:11.350Z,31.43
2018-03-22T22:14:39.687Z,37.50
2018-03-22T22:17:08.803Z,36.03
2018-03-22T22:19:37.945Z,40.13
2018-03-22T22:22:06.348Z,31.87
2018-03-22T22:24:35.459Z,42.20
2018-03-22T22:27:04.328Z,32.27
2018-03-22T22:29:32.929Z,37.23
2018-03-22T22:32:01.303Z,35.10
2018-03-22T22:34:30.432Z,34.10
2018-03-22T22:36:58.818Z,36.00
2018-03-22T22:39:27.173Z,34.80
2018-03-22T22:41:55.579Z,38.00
2018-03-22T22:44:23.929Z,40.13
2018-03-22T22:46:52.319Z,39.57
2018-03-22T22:49:20.679Z,34.40
2018-03-22T22:51:49.037Z,36.50
2018-03-22T22:54:18.164Z,35.43
2018-03-22T22:56:47.792Z,37.43
2018-03-22T22:59:16.180Z,30.13
2018-03-22T23:01:44.562Z,35.10
2018-03-22T23:04:12.932Z,39.17
2018-03-22T23:06:41.294Z,32.13
2018-03-22T23:09:09.685Z,29.50
2018-03-22T23:11:38.035Z,28.97
2018-03-22T23:14:06.204Z,32.00
2018-03-22T23:16:34.573Z,23.33
2018-03-22T23:19:03.705Z,21.10
2018-03-22T23:21:31.753Z,24.90
2018-03-22T23:24:00.910Z,19.60
2018-03-22T23:26:29.266Z,20.97
2018-03-22T23:28:57.828Z,18.77
2018-03-22T23:31:26.191Z,17.63
2018-03-22T23:33:54.563Z,18.90
2018-03-22T23:36:22.720Z,13.60
2018-03-22T23:38:51.859Z,18.10
2018-03-22T23:41:21.011Z,19.77
2018-03-22T23:43:50.146Z,22.23
2018-03-22T23:46:18.520Z,30.60
2018-03-22T23:48:46.913Z,25.27
2018-03-22T23:51:15.284Z,22.37
2018-03-22T23:53:43.666Z,21.80
2018-03-22T23:56:12.034Z,21.50
2018-03-22T23:58:40.207Z,24.30
